Time;durP1;ratioP1;P1;durP2;ratioP2;P2;SDS_P1;SDS_P2;PMS_P1;PMS_P2;Temp;Humidity;BMP_temperature;BMP_pressure;BME280_temperature;BME280_humidity;BME280_pressure;Samples;Min_cycle;Max_cycle;Signal;HPM_P1;HPM_P2
2020/12/18 00:01:38;;;;;;;53.00;29.50;;;;;;;;;;6255760;23;20428;-91
2020/12/18 00:04:04;;;;;;;40.97;25.53;;;;;;;;;;6256629;23;20445;-92
2020/12/18 00:06:32;;;;;;;53.70;31.23;;;;;;;;;;6255722;23;20416;-91
2020/12/18 00:08:58;;;;;;;47.53;26.70;;;;;;;;;;6257829;23;20422;-91
2020/12/18 00:11:25;;;;;;;52.60;31.67;;;;;;;;;;6255069;23;20406;-92
2020/12/18 00:13:51;;;;;;;54.73;32.80;;;;;;;;;;6255651;23;20405;-92
2020/12/18 00:16:18;;;;;;;50.83;30.00;;;;;;;;;;6257237;23;20425;-91
2020/12/18 00:18:44;;;;;;;53.90;29.83;;;;;;;;;;6255873;23;20402;-92
2020/12/18 00:21:10;;;;;;;53.73;29.63;;;;;;;;;;6256063;23;20410;-92
2020/12/18 00:23:36;;;;;;;52.57;29.13;;;;;;;;;;6253292;22;20453;-91
2020/12/18 00:26:04;;;;;;;53.37;29.27;;;;;;;;;;6257663;23;20406;-91
2020/12/18 00:28:30;;;;;;;53.07;29.53;;;;;;;;;;6256102;23;20410;-91
2020/12/18 00:30:56;;;;;;;51.00;28.13;;;;;;;;;;6258350;23;20426;-92
2020/12/18 00:33:23;;;;;;;53.03;27.07;;;;;;;;;;6255889;23;20402;-92
2020/12/18 00:35:50;;;;;;;48.77;27.43;;;;;;;;;;6257499;23;20414;-91
2020/12/18 00:38:16;;;;;;;48.63;28.10;;;;;;;;;;6255962;23;20890;-92
2020/12/18 00:40:42;;;;;;;42.93;26.27;;;;;;;;;;6257304;23;20440;-92
2020/12/18 00:43:08;;;;;;;49.87;26.77;;;;;;;;;;6257059;23;20483;-91
2020/12/18 00:45:34;;;;;;;42.27;24.07;;;;;;;;;;6255562;23;20414;-92
2020/12/18 00:48:00;;;;;;;42.20;22.50;;;;;;;;;;6254632;23;20409;-92
2020/12/18 00:50:26;;;;;;;41.20;24.83;;;;;;;;;;6253155;23;20428;-92
2020/12/18 00:52:53;;;;;;;43.80;22.07;;;;;;;;;;6255737;23;20418;-92
2020/12/18 00:55:19;;;;;;;42.67;23.57;;;;;;;;;;6255705;23;21010;-92
2020/12/18 00:57:45;;;;;;;45.10;22.40;;;;;;;;;;6259510;23;20408;-93
2020/12/18 01:00:12;;;;;;;50.27;21.50;;;;;;;;;;6265858;23;20797;-92
2020/12/18 01:02:38;;;;;;;41.77;21.50;;;;;;;;;;6255388;23;20437;-91
2020/12/18 01:05:04;;;;;;;42.83;21.73;;;;;;;;;;6257566;23;20413;-92
2020/12/18 01:07:30;;;;;;;39.90;21.10;;;;;;;;;;6256057;23;20406;-92
2020/12/18 01:09:57;;;;;;;32.93;20.30;;;;;;;;;;6257442;23;20421;-92
2020/12/18 01:12:23;;;;;;;42.30;23.90;;;;;;;;;;6255030;23;20406;-92
2020/12/18 01:14:49;;;;;;;49.63;22.97;;;;;;;;;;6257764;23;20410;-92
2020/12/18 01:17:15;;;;;;;42.20;22.63;;;;;;;;;;6254560;23;20405;-92
2020/12/18 01:19:41;;;;;;;39.27;23.70;;;;;;;;;;6256704;23;20786;-91
2020/12/18 01:22:07;;;;;;;41.43;23.80;;;;;;;;;;6256721;23;20479;-91
2020/12/18 01:24:33;;;;;;;39.70;22.57;;;;;;;;;;6256438;23;20453;-92
2020/12/18 01:27:00;;;;;;;44.90;23.53;;;;;;;;;;6256800;23;20416;-92
2020/12/18 01:29:26;;;;;;;39.27;22.40;;;;;;;;;;6255546;23;20421;-92
2020/12/18 01:31:54;;;;;;;40.37;23.80;;;;;;;;;;6255964;23;20413;-92
2020/12/18 01:34:19;;;;;;;38.73;23.70;;;;;;;;;;6254938;23;20441;-91
2020/12/18 01:36:45;;;;;;;34.60;20.77;;;;;;;;;;6257217;23;20402;-92
2020/12/18 01:39:11;;;;;;;38.83;23.63;;;;;;;;;;6254920;23;21288;-92
2020/12/18 01:41:37;;;;;;;39.07;23.43;;;;;;;;;;6255659;23;20414;-92
2020/12/18 01:44:04;;;;;;;39.67;21.63;;;;;;;;;;6254862;23;20453;-92
2020/12/18 01:46:31;;;;;;;40.67;23.07;;;;;;;;;;6255806;23;21038;-92
2020/12/18 01:48:57;;;;;;;46.53;22.83;;;;;;;;;;6256431;23;20432;-92
2020/12/18 01:51:23;;;;;;;36.17;21.77;;;;;;;;;;6255020;23;20414;-92
2020/12/18 01:53:50;;;;;;;42.70;24.17;;;;;;;;;;6256306;23;20459;-92
2020/12/18 01:56:16;;;;;;;39.30;22.67;;;;;;;;;;6252801;23;20947;-91
2020/12/18 01:58:44;;;;;;;42.57;21.07;;;;;;;;;;6252399;23;20410;-91
2020/12/18 02:01:10;;;;;;;40.57;21.90;;;;;;;;;;6250106;23;20421;-91
2020/12/18 02:03:37;;;;;;;44.63;22.80;;;;;;;;;;6250578;23;20437;-92
2020/12/18 02:06:05;;;;;;;37.47;22.20;;;;;;;;;;6248520;23;20413;-92
2020/12/18 02:08:31;;;;;;;39.90;21.57;;;;;;;;;;6247361;23;20424;-92
2020/12/18 02:10:57;;;;;;;44.47;23.37;;;;;;;;;;6246721;23;20406;-92
2020/12/18 02:13:24;;;;;;;34.67;20.30;;;;;;;;;;6244913;23;20417;-92
2020/12/18 02:15:50;;;;;;;36.00;21.27;;;;;;;;;;6246968;23;20448;-92
2020/12/18 02:18:17;;;;;;;44.17;21.00;;;;;;;;;;6245934;23;20414;-92
2020/12/18 02:20:43;;;;;;;38.80;21.70;;;;;;;;;;6247978;23;20432;-92
2020/12/18 02:23:09;;;;;;;42.33;20.43;;;;;;;;;;6246257;23;20454;-92
2020/12/18 02:25:38;;;;;;;41.87;23.17;;;;;;;;;;6252680;23;20401;-92
2020/12/18 02:28:05;;;;;;;40.70;22.77;;;;;;;;;;6253047;23;20406;-92
2020/12/18 02:30:31;;;;;;;42.33;23.10;;;;;;;;;;6251702;23;20417;-93
2020/12/18 02:32:57;;;;;;;46.57;22.73;;;;;;;;;;6254871;23;20949;-92
2020/12/18 02:35:23;;;;;;;41.13;23.80;;;;;;;;;;6252672;23;20421;-92
2020/12/18 02:37:49;;;;;;;42.27;23.00;;;;;;;;;;6254850;23;20422;-92
2020/12/18 02:40:15;;;;;;;43.77;22.70;;;;;;;;;;6253223;23;20420;-92
2020/12/18 02:42:41;;;;;;;44.37;23.00;;;;;;;;;;6256543;23;20433;-92
2020/12/18 02:45:08;;;;;;;42.20;23.10;;;;;;;;;;6254393;23;20508;-92
2020/12/18 02:47:33;;;;;;;46.57;23.60;;;;;;;;;;6256060;23;20402;-92
2020/12/18 02:49:59;;;;;;;42.40;22.40;;;;;;;;;;6260773;23;20701;-90
2020/12/18 02:52:25;;;;;;;48.50;25.00;;;;;;;;;;6261833;23;20405;-91
2020/12/18 02:54:53;;;;;;;45.93;22.77;;;;;;;;;;6256661;23;20418;-91
2020/12/18 02:57:19;;;;;;;46.03;23.53;;;;;;;;;;6254714;23;20413;-93
2020/12/18 02:59:45;;;;;;;50.67;25.00;;;;;;;;;;6255800;23;20406;-92
2020/12/18 03:02:11;;;;;;;49.00;25.17;;;;;;;;;;6252127;23;20428;-92
2020/12/18 03:04:37;;;;;;;48.50;25.67;;;;;;;;;;6253768;23;20453;-91
2020/12/18 03:07:03;;;;;;;57.67;30.00;;;;;;;;;;6255291;23;20421;-91
2020/12/18 03:09:30;;;;;;;51.47;32.10;;;;;;;;;;6257426;23;20421;-92
2020/12/18 03:11:56;;;;;;;48.10;24.37;;;;;;;;;;6254706;23;20406;-92
2020/12/18 03:14:22;;;;;;;49.63;22.67;;;;;;;;;;6252661;23;20756;-92
2020/12/18 03:16:48;;;;;;;47.07;23.40;;;;;;;;;;6256351;23;20428;-91
2020/12/18 03:19:15;;;;;;;38.70;20.10;;;;;;;;;;6254720;23;20402;-92
2020/12/18 03:21:41;;;;;;;43.30;19.47;;;;;;;;;;6255915;23;20414;-91
2020/12/18 03:24:07;;;;;;;36.27;20.17;;;;;;;;;;6253930;23;20445;-91
2020/12/18 03:26:33;;;;;;;47.07;21.93;;;;;;;;;;6253714;23;20402;-91
2020/12/18 03:28:59;;;;;;;42.70;20.07;;;;;;;;;;6251592;23;20437;-91
2020/12/18 03:31:25;;;;;;;44.20;21.73;;;;;;;;;;6254241;23;20444;-91
2020/12/18 03:33:51;;;;;;;44.67;20.57;;;;;;;;;;6254543;23;20409;-91
2020/12/18 03:36:18;;;;;;;36.80;19.10;;;;;;;;;;6253791;23;20416;-92
2020/12/18 03:38:44;;;;;;;41.57;20.00;;;;;;;;;;6255177;23;20406;-92
2020/12/18 03:41:10;;;;;;;41.63;20.23;;;;;;;;;;6253878;23;20424;-91
2020/12/18 03:43:36;;;;;;;40.17;20.70;;;;;;;;;;6254602;23;20456;-92
2020/12/18 03:46:02;;;;;;;51.90;21.60;;;;;;;;;;6253520;23;20417;-90
2020/12/18 03:48:28;;;;;;;43.20;18.30;;;;;;;;;;6258521;23;20424;-91
2020/12/18 03:50:54;;;;;;;39.63;20.07;;;;;;;;;;6258267;23;20902;-92
2020/12/18 03:53:21;;;;;;;46.27;22.17;;;;;;;;;;6256062;23;20424;-92
2020/12/18 03:55:47;;;;;;;42.07;19.87;;;;;;;;;;6255647;23;20433;-92
2020/12/18 03:58:13;;;;;;;45.50;20.53;;;;;;;;;;6254515;23;20414;-92
2020/12/18 04:00:39;;;;;;;39.70;19.93;;;;;;;;;;6255380;23;20422;-91
2020/12/18 04:03:05;;;;;;;50.87;21.63;;;;;;;;;;6252868;23;20445;-92
2020/12/18 04:05:31;;;;;;;40.13;21.17;;;;;;;;;;6254209;23;20410;-90
2020/12/18 04:07:57;;;;;;;42.60;20.60;;;;;;;;;;6254570;23;20406;-91
2020/12/18 04:10:24;;;;;;;49.80;21.20;;;;;;;;;;6258152;23;20412;-90
2020/12/18 04:12:50;;;;;;;38.90;21.33;;;;;;;;;;6256836;23;20418;-91
2020/12/18 04:15:16;;;;;;;47.80;21.40;;;;;;;;;;6256922;23;20418;-91
2020/12/18 04:17:43;;;;;;;48.40;21.40;;;;;;;;;;6258250;23;20467;-91
2020/12/18 04:20:09;;;;;;;47.97;22.77;;;;;;;;;;6256925;23;20402;-91
2020/12/18 04:22:35;;;;;;;45.43;21.10;;;;;;;;;;6257519;23;20436;-91
2020/12/18 04:25:01;;;;;;;40.90;21.80;;;;;;;;;;6255308;23;20453;-90
2020/12/18 04:27:29;;;;;;;44.70;20.70;;;;;;;;;;6256628;23;20405;-91
2020/12/18 04:29:55;;;;;;;48.53;21.73;;;;;;;;;;6256480;23;20453;-92
2020/12/18 04:32:21;;;;;;;45.93;23.17;;;;;;;;;;6258185;23;20715;-92
2020/12/18 04:34:47;;;;;;;44.03;23.50;;;;;;;;;;6255907;23;20422;-92
2020/12/18 04:37:13;;;;;;;52.90;22.90;;;;;;;;;;6257415;23;20414;-91
2020/12/18 04:39:39;;;;;;;52.27;24.70;;;;;;;;;;6258491;23;20467;-92
2020/12/18 04:42:05;;;;;;;44.27;24.60;;;;;;;;;;6261857;23;20469;-92
2020/12/18 04:44:32;;;;;;;52.47;25.60;;;;;;;;;;6263093;23;20457;-92
2020/12/18 04:46:59;;;;;;;44.97;22.10;;;;;;;;;;6255852;23;20405;-92
2020/12/18 04:49:28;;;;;;;53.93;24.87;;;;;;;;;;6258042;23;20406;-91
2020/12/18 04:51:56;;;;;;;49.60;24.00;;;;;;;;;;6254536;23;20440;-90
2020/12/18 04:54:22;;;;;;;49.50;24.80;;;;;;;;;;6255771;23;20517;-91
2020/12/18 04:56:50;;;;;;;45.03;23.07;;;;;;;;;;6254450;23;20974;-92
2020/12/18 04:59:20;;;;;;;42.73;23.30;;;;;;;;;;6255597;23;20414;-92
2020/12/18 05:01:46;;;;;;;47.50;24.57;;;;;;;;;;6255883;23;20805;-92
2020/12/18 05:04:13;;;;;;;53.17;24.63;;;;;;;;;;6255198;23;20446;-91
2020/12/18 05:06:39;;;;;;;46.90;24.33;;;;;;;;;;6255092;23;20413;-92
2020/12/18 05:09:05;;;;;;;44.10;23.03;;;;;;;;;;6254566;23;20414;-92
2020/12/18 05:11:31;;;;;;;58.23;28.20;;;;;;;;;;6257283;23;20417;-92
2020/12/18 05:13:57;;;;;;;48.63;26.17;;;;;;;;;;6254876;23;20410;-91
2020/12/18 05:16:24;;;;;;;43.80;23.33;;;;;;;;;;6255835;23;20483;-91
2020/12/18 05:18:51;;;;;;;59.50;30.17;;;;;;;;;;6252339;23;20443;-91
2020/12/18 05:21:18;;;;;;;42.43;23.77;;;;;;;;;;6257089;23;20406;-93
2020/12/18 05:23:45;;;;;;;45.23;25.27;;;;;;;;;;6255844;23;21175;-91
2020/12/18 05:26:12;;;;;;;51.63;25.13;;;;;;;;;;6255696;23;20410;-92
2020/12/18 05:28:38;;;;;;;43.60;24.27;;;;;;;;;;6255946;23;20444;-91
2020/12/18 05:31:08;;;;;;;46.23;25.13;;;;;;;;;;6253994;23;20417;-92
2020/12/18 05:33:34;;;;;;;46.00;22.63;;;;;;;;;;6256628;23;20463;-91
2020/12/18 05:36:01;;;;;;;49.60;23.93;;;;;;;;;;6255048;23;20415;-91
2020/12/18 05:38:27;;;;;;;51.63;21.67;;;;;;;;;;6261759;23;20436;-90
2020/12/18 05:40:53;;;;;;;43.20;23.63;;;;;;;;;;6254511;23;20422;-91
2020/12/18 05:43:19;;;;;;;44.17;22.27;;;;;;;;;;6252737;23;20492;-91
2020/12/18 05:45:45;;;;;;;45.47;22.67;;;;;;;;;;6255590;23;20499;-92
2020/12/18 05:48:14;;;;;;;39.33;21.23;;;;;;;;;;6256026;23;20414;-91
2020/12/18 05:50:41;;;;;;;44.83;23.00;;;;;;;;;;6257264;23;20421;-91
2020/12/18 05:53:10;;;;;;;45.07;23.20;;;;;;;;;;6255245;23;20402;-91
2020/12/18 05:55:37;;;;;;;45.27;22.87;;;;;;;;;;6256925;23;20430;-92
2020/12/18 05:58:03;;;;;;;45.93;22.83;;;;;;;;;;6254587;23;20785;-91
2020/12/18 06:00:29;;;;;;;47.43;24.20;;;;;;;;;;6255818;23;20916;-91
2020/12/18 06:02:56;;;;;;;49.10;24.30;;;;;;;;;;6252352;23;20406;-91
2020/12/18 06:05:22;;;;;;;48.33;22.60;;;;;;;;;;6255442;23;20406;-92
2020/12/18 06:07:50;;;;;;;45.60;22.63;;;;;;;;;;6254925;23;20414;-91
2020/12/18 06:10:17;;;;;;;43.80;23.07;;;;;;;;;;6257067;23;20406;-91
2020/12/18 06:12:43;;;;;;;45.30;23.27;;;;;;;;;;6256267;23;20417;-91
2020/12/18 06:15:09;;;;;;;54.27;25.27;;;;;;;;;;6254497;23;21316;-91
2020/12/18 06:17:36;;;;;;;49.43;22.30;;;;;;;;;;6255668;23;20410;-91
2020/12/18 06:20:03;;;;;;;53.67;25.13;;;;;;;;;;6254235;23;20402;-91
2020/12/18 06:22:29;;;;;;;50.90;23.97;;;;;;;;;;6254314;23;20429;-91
2020/12/18 06:24:55;;;;;;;48.33;24.67;;;;;;;;;;6253420;23;20449;-91
2020/12/18 06:27:22;;;;;;;50.60;26.07;;;;;;;;;;6255041;23;20405;-91
2020/12/18 06:29:49;;;;;;;46.33;23.13;;;;;;;;;;6254386;23;20422;-92
2020/12/18 06:32:25;;;;;;;47.43;21.30;;;;;;;;;;6254174;23;20453;-92
2020/12/18 06:34:51;;;;;;;45.43;22.97;;;;;;;;;;6267213;23;20427;-92
2020/12/18 06:37:27;;;;;;;44.50;21.40;;;;;;;;;;6253617;23;20398;-93
2020/12/18 06:39:53;;;;;;;45.77;21.67;;;;;;;;;;6253803;23;20413;-92
2020/12/18 06:42:20;;;;;;;51.73;23.87;;;;;;;;;;6253288;23;20472;-92
2020/12/18 06:44:48;;;;;;;44.43;24.67;;;;;;;;;;6255054;23;20449;-93
2020/12/18 06:47:16;;;;;;;55.33;25.07;;;;;;;;;;6254585;23;20402;-92
2020/12/18 06:49:58;;;;;;;73.77;33.07;;;;;;;;;;6254096;23;20436;-91
2020/12/18 06:52:37;;;;;;;67.13;36.37;;;;;;;;;;6252205;23;20421;-92
2020/12/18 06:55:03;;;;;;;65.50;34.23;;;;;;;;;;6255122;23;20409;-91
2020/12/18 06:57:29;;;;;;;53.43;28.00;;;;;;;;;;6253068;23;20413;-92
2020/12/18 07:00:10;;;;;;;54.90;28.80;;;;;;;;;;6254272;23;20426;-91
2020/12/18 07:02:37;;;;;;;49.63;25.57;;;;;;;;;;6255589;23;20724;-91
2020/12/18 07:05:03;;;;;;;55.30;30.93;;;;;;;;;;6254503;23;20450;-92
2020/12/18 07:07:31;;;;;;;48.53;23.80;;;;;;;;;;6254002;23;20413;-91
2020/12/18 07:09:57;;;;;;;43.07;22.03;;;;;;;;;;6252267;23;20803;-91
2020/12/18 07:12:23;;;;;;;49.40;23.20;;;;;;;;;;6254513;23;20441;-92
2020/12/18 07:14:49;;;;;;;49.93;24.53;;;;;;;;;;6254196;23;20414;-93
2020/12/18 07:17:15;;;;;;;41.47;22.77;;;;;;;;;;6256678;23;20402;-92
2020/12/18 07:19:43;;;;;;;39.07;20.40;;;;;;;;;;6254005;23;20479;-92
2020/12/18 07:22:09;;;;;;;54.30;27.30;;;;;;;;;;6255930;23;20421;-93
2020/12/18 07:24:35;;;;;;;51.60;27.30;;;;;;;;;;6255456;23;20484;-92
2020/12/18 07:27:01;;;;;;;44.13;24.43;;;;;;;;;;6254561;23;20406;-92
2020/12/18 07:29:28;;;;;;;36.00;18.50;;;;;;;;;;6255998;23;20414;-91
2020/12/18 07:31:55;;;;;;;51.40;23.80;;;;;;;;;;6254208;23;20923;-93
2020/12/18 07:34:21;;;;;;;40.03;20.33;;;;;;;;;;6256024;23;20412;-91
2020/12/18 07:36:48;;;;;;;44.47;24.10;;;;;;;;;;6252878;23;20402;-92
2020/12/18 07:39:14;;;;;;;46.40;22.00;;;;;;;;;;6253712;23;20420;-92
2020/12/18 07:41:40;;;;;;;42.17;21.43;;;;;;;;;;6253576;23;20414;-92
2020/12/18 07:44:07;;;;;;;43.53;21.00;;;;;;;;;;6257578;23;20449;-92
2020/12/18 07:46:34;;;;;;;45.10;22.80;;;;;;;;;;6256096;23;20447;-91
2020/12/18 07:49:07;;;;;;;45.47;22.67;;;;;;;;;;6254864;23;20406;-93
2020/12/18 07:51:33;;;;;;;41.27;21.00;;;;;;;;;;6257374;23;20398;-92
2020/12/18 07:53:59;;;;;;;38.17;19.47;;;;;;;;;;6257257;23;20440;-93
2020/12/18 07:56:25;;;;;;;36.53;16.70;;;;;;;;;;6256151;23;20437;-92
2020/12/18 07:58:53;;;;;;;30.90;17.60;;;;;;;;;;6252558;23;20414;-92
2020/12/18 08:01:20;;;;;;;38.13;19.07;;;;;;;;;;6255697;23;20422;-93
2020/12/18 08:03:47;;;;;;;32.83;18.53;;;;;;;;;;6254741;23;20460;-93
2020/12/18 08:06:18;;;;;;;36.53;20.40;;;;;;;;;;6255662;23;20467;-91
2020/12/18 08:08:51;;;;;;;41.80;21.30;;;;;;;;;;6252931;23;20406;-93
2020/12/18 08:11:19;;;;;;;45.93;21.07;;;;;;;;;;6255708;23;20417;-92
2020/12/18 08:13:45;;;;;;;39.13;21.33;;;;;;;;;;6256951;23;20417;-91
2020/12/18 08:16:12;;;;;;;57.00;30.60;;;;;;;;;;6253769;23;20424;-92
2020/12/18 08:18:38;;;;;;;50.23;33.20;;;;;;;;;;6257970;23;20498;-93
2020/12/18 08:21:05;;;;;;;35.00;19.70;;;;;;;;;;6255518;23;20406;-91
2020/12/18 08:23:33;;;;;;;41.50;20.33;;;;;;;;;;6257289;23;20459;-92
2020/12/18 08:25:59;;;;;;;35.30;19.83;;;;;;;;;;6254975;23;20871;-92
2020/12/18 08:28:29;;;;;;;36.63;20.20;;;;;;;;;;6256237;23;20472;-91
2020/12/18 08:30:57;;;;;;;42.50;22.30;;;;;;;;;;6256411;23;20409;-92
2020/12/18 08:33:24;;;;;;;39.47;20.17;;;;;;;;;;6254830;23;20405;-91
2020/12/18 08:35:53;;;;;;;38.03;21.23;;;;;;;;;;6255391;23;20402;-93
2020/12/18 08:38:19;;;;;;;42.23;19.77;;;;;;;;;;6253686;23;20414;-92
2020/12/18 08:40:45;;;;;;;44.33;21.50;;;;;;;;;;6255447;23;20424;-92
2020/12/18 08:43:11;;;;;;;38.53;20.67;;;;;;;;;;6255621;23;20414;-92
2020/12/18 08:45:44;;;;;;;42.03;22.63;;;;;;;;;;6255977;23;20422;-91
2020/12/18 08:48:11;;;;;;;47.50;20.17;;;;;;;;;;6252480;23;20439;-93
2020/12/18 08:50:37;;;;;;;44.07;23.33;;;;;;;;;;6254849;23;20985;-91
2020/12/18 08:53:08;;;;;;;36.27;20.87;;;;;;;;;;6254302;23;20410;-92
2020/12/18 08:55:34;;;;;;;47.53;22.50;;;;;;;;;;6255485;23;20502;-92
2020/12/18 08:58:05;;;;;;;36.97;20.40;;;;;;;;;;6254840;23;20406;-95
2020/12/18 09:00:31;;;;;;;37.40;22.50;;;;;;;;;;6255252;23;20444;-91
2020/12/18 09:02:58;;;;;;;41.57;22.70;;;;;;;;;;6255082;23;20424;-92
2020/12/18 09:05:25;;;;;;;42.10;19.70;;;;;;;;;;6254101;23;20460;-92
2020/12/18 09:07:52;;;;;;;34.67;20.43;;;;;;;;;;6256010;23;20704;-91
2020/12/18 09:10:31;;;;;;;38.73;19.20;;;;;;;;;;6255441;23;20418;-92
2020/12/18 09:12:57;;;;;;;35.40;21.00;;;;;;;;;;6252570;23;20413;-92
2020/12/18 09:15:24;;;;;;;38.90;18.77;;;;;;;;;;6250811;23;20422;-90
2020/12/18 09:18:01;;;;;;;34.20;18.30;;;;;;;;;;6253580;23;20413;-91
2020/12/18 09:20:28;;;;;;;39.97;19.73;;;;;;;;;;6253785;23;20413;-93
2020/12/18 09:22:58;;;;;;;40.40;20.50;;;;;;;;;;6254738;23;20850;-93
2020/12/18 09:25:24;;;;;;;44.80;22.00;;;;;;;;;;6254105;23;20449;-90
2020/12/18 09:27:54;;;;;;;38.17;21.17;;;;;;;;;;6252995;23;20409;-91
2020/12/18 09:30:21;;;;;;;33.33;19.30;;;;;;;;;;6255089;23;20410;-91
2020/12/18 09:32:47;;;;;;;36.20;20.30;;;;;;;;;;6254688;23;20418;-91
2020/12/18 09:35:14;;;;;;;34.30;18.23;;;;;;;;;;6255897;23;20398;-90
2020/12/18 09:37:43;;;;;;;31.17;18.20;;;;;;;;;;6251440;23;20739;-92
2020/12/18 09:40:09;;;;;;;35.10;17.57;;;;;;;;;;6253439;23;20410;-91
2020/12/18 09:42:35;;;;;;;38.03;19.47;;;;;;;;;;6251101;23;20416;-91
2020/12/18 09:45:01;;;;;;;30.87;17.10;;;;;;;;;;6253048;23;20459;-92
2020/12/18 09:47:27;;;;;;;44.00;19.60;;;;;;;;;;6253466;23;20406;-92
2020/12/18 09:49:53;;;;;;;35.23;20.43;;;;;;;;;;6253297;23;20487;-92
2020/12/18 09:52:20;;;;;;;36.70;23.70;;;;;;;;;;6252682;23;20414;-92
2020/12/18 09:54:46;;;;;;;31.67;18.20;;;;;;;;;;6248628;22;20416;-92
2020/12/18 09:57:12;;;;;;;36.60;18.43;;;;;;;;;;6222970;23;20402;-93
2020/12/18 09:59:38;;;;;;;39.13;19.20;;;;;;;;;;6222088;23;20413;-93
2020/12/18 10:02:04;;;;;;;32.03;17.50;;;;;;;;;;6225272;23;20914;-92
2020/12/18 10:04:30;;;;;;;31.47;17.50;;;;;;;;;;6223328;23;20454;-93
2020/12/18 10:06:56;;;;;;;37.43;17.10;;;;;;;;;;6224029;23;20434;-94
2020/12/18 10:09:25;;;;;;;34.00;19.00;;;;;;;;;;6227131;23;20411;-92
2020/12/18 10:11:51;;;;;;;35.63;18.17;;;;;;;;;;6232864;23;20417;-90
2020/12/18 10:14:17;;;;;;;32.87;18.03;;;;;;;;;;6223182;23;20812;-91
2020/12/18 10:16:44;;;;;;;28.53;17.03;;;;;;;;;;6221541;23;20418;-91
2020/12/18 10:19:09;;;;;;;30.53;17.90;;;;;;;;;;6223269;23;20410;-91
2020/12/18 10:21:35;;;;;;;35.03;19.23;;;;;;;;;;6221715;23;20468;-93
2020/12/18 10:24:02;;;;;;;30.67;18.00;;;;;;;;;;6216548;23;20452;-93
2020/12/18 10:26:28;;;;;;;33.43;17.70;;;;;;;;;;6219116;23;20435;-94
2020/12/18 10:28:54;;;;;;;33.33;17.80;;;;;;;;;;6223148;23;20422;-93
2020/12/18 10:31:20;;;;;;;30.43;16.37;;;;;;;;;;6219802;23;20426;-95
2020/12/18 10:33:46;;;;;;;29.57;17.10;;;;;;;;;;6220188;23;20438;-93
2020/12/18 10:36:12;;;;;;;35.67;19.40;;;;;;;;;;6218985;23;20421;-93
2020/12/18 10:38:38;;;;;;;34.97;18.07;;;;;;;;;;6216776;23;20411;-92
2020/12/18 10:41:04;;;;;;;29.30;18.37;;;;;;;;;;6220341;23;20422;-91
2020/12/18 10:43:31;;;;;;;31.30;18.43;;;;;;;;;;6218192;23;20414;-92
2020/12/18 10:45:57;;;;;;;30.87;18.20;;;;;;;;;;6223526;23;20419;-93
2020/12/18 10:48:24;;;;;;;30.57;17.70;;;;;;;;;;6224882;23;20411;-93
2020/12/18 10:50:50;;;;;;;32.73;18.43;;;;;;;;;;6223915;23;20422;-93
2020/12/18 10:53:16;;;;;;;36.80;17.40;;;;;;;;;;6224162;23;20407;-92
2020/12/18 10:55:42;;;;;;;27.50;17.37;;;;;;;;;;6236836;23;20440;-92
2020/12/18 10:58:08;;;;;;;31.80;17.90;;;;;;;;;;6257222;23;20410;-92
2020/12/18 11:00:35;;;;;;;33.97;19.13;;;;;;;;;;6257880;23;20425;-92
2020/12/18 11:03:01;;;;;;;32.43;19.10;;;;;;;;;;6254112;23;20415;-93
2020/12/18 11:05:28;;;;;;;34.43;19.47;;;;;;;;;;6252798;23;20502;-92
2020/12/18 11:07:54;;;;;;;33.53;17.27;;;;;;;;;;6256095;23;20413;-91
2020/12/18 11:10:20;;;;;;;33.83;18.40;;;;;;;;;;6254163;23;20414;-92
2020/12/18 11:12:46;;;;;;;36.20;19.60;;;;;;;;;;6253073;23;20406;-93
2020/12/18 11:15:12;;;;;;;36.20;21.27;;;;;;;;;;6252563;23;20417;-92
2020/12/18 11:17:39;;;;;;;36.17;20.50;;;;;;;;;;6255996;23;20410;-93
2020/12/18 11:20:05;;;;;;;36.50;21.47;;;;;;;;;;6259418;23;20416;-93
2020/12/18 11:22:31;;;;;;;35.03;20.53;;;;;;;;;;6256461;23;20436;-93
2020/12/18 11:24:57;;;;;;;33.67;19.90;;;;;;;;;;6258955;23;20938;-93
2020/12/18 11:27:23;;;;;;;37.03;19.73;;;;;;;;;;6258101;23;21120;-96
2020/12/18 11:29:49;;;;;;;30.00;19.03;;;;;;;;;;6259095;23;20417;-91
2020/12/18 11:32:16;;;;;;;31.80;19.10;;;;;;;;;;6214012;22;20462;-93
2020/12/18 11:34:43;;;;;;;32.27;19.30;;;;;;;;;;6226225;23;20407;-92
2020/12/18 11:37:09;;;;;;;34.47;19.77;;;;;;;;;;6226761;23;20410;-92
2020/12/18 11:39:35;;;;;;;40.23;20.77;;;;;;;;;;6228183;23;20434;-91
2020/12/18 11:42:01;;;;;;;29.87;18.30;;;;;;;;;;6223205;23;20410;-92
2020/12/18 11:44:27;;;;;;;38.43;21.43;;;;;;;;;;6228432;23;20441;-93
2020/12/18 11:46:54;;;;;;;29.17;17.37;;;;;;;;;;6231252;23;20414;-94
2020/12/18 11:49:20;;;;;;;32.20;19.37;;;;;;;;;;6228944;23;20414;-92
2020/12/18 11:51:48;;;;;;;37.37;18.50;;;;;;;;;;6227553;23;20407;-94
2020/12/18 11:54:14;;;;;;;33.10;17.60;;;;;;;;;;6228051;23;20436;-91
2020/12/18 11:56:40;;;;;;;30.40;17.40;;;;;;;;;;6234460;23;20412;-91
2020/12/18 11:59:12;;;;;;;28.63;16.30;;;;;;;;;;6232001;23;20402;-93
2020/12/18 12:01:40;;;;;;;33.37;16.57;;;;;;;;;;6229236;23;20481;-92
2020/12/18 12:04:06;;;;;;;42.30;18.73;;;;;;;;;;6229390;23;20454;-91
2020/12/18 12:06:32;;;;;;;31.07;17.23;;;;;;;;;;6225205;23;20410;-91
2020/12/18 12:09:03;;;;;;;40.17;18.27;;;;;;;;;;6226373;23;20414;-91
2020/12/18 12:11:35;;;;;;;34.87;18.97;;;;;;;;;;6229515;23;20474;-93
2020/12/18 12:14:03;;;;;;;31.40;19.00;;;;;;;;;;6226718;23;20851;-94
2020/12/18 12:16:31;;;;;;;34.10;18.90;;;;;;;;;;6228745;23;20450;-93
2020/12/18 12:18:57;;;;;;;33.33;19.80;;;;;;;;;;6230744;23;20441;-93
2020/12/18 12:21:30;;;;;;;37.90;21.27;;;;;;;;;;6227538;23;20422;-95
2020/12/18 12:23:57;;;;;;;41.63;19.40;;;;;;;;;;6233258;23;20435;-94
2020/12/18 12:26:24;;;;;;;37.20;19.60;;;;;;;;;;6233258;23;20403;-94
2020/12/18 12:28:50;;;;;;;41.53;20.67;;;;;;;;;;6229756;23;20427;-93
2020/12/18 12:31:17;;;;;;;35.27;19.23;;;;;;;;;;6224392;23;20422;-96
2020/12/18 12:33:43;;;;;;;35.73;19.40;;;;;;;;;;6226536;23;20451;-94
2020/12/18 12:36:09;;;;;;;35.87;19.60;;;;;;;;;;6226367;23;20457;-94
2020/12/18 12:38:35;;;;;;;37.37;19.80;;;;;;;;;;6227592;23;20418;-94
2020/12/18 12:41:02;;;;;;;36.50;19.90;;;;;;;;;;6225711;23;20414;-95
2020/12/18 12:43:48;;;;;;;36.97;18.27;;;;;;;;;;6238766;23;20456;-95
2020/12/18 12:46:14;;;;;;;32.10;20.53;;;;;;;;;;6230323;23;20494;-95
2020/12/18 12:48:41;;;;;;;40.77;20.40;;;;;;;;;;6227014;23;20402;-94
2020/12/18 12:51:07;;;;;;;36.23;19.40;;;;;;;;;;6225198;23;20731;-94
2020/12/18 12:53:33;;;;;;;30.83;17.50;;;;;;;;;;6224943;23;20414;-94
2020/12/18 12:55:59;;;;;;;31.53;18.70;;;;;;;;;;6225233;23;20444;-95
2020/12/18 12:58:26;;;;;;;42.70;21.13;;;;;;;;;;6226402;23;20470;-94
2020/12/18 13:00:52;;;;;;;34.30;20.40;;;;;;;;;;6224273;23;20412;-95
2020/12/18 13:03:19;;;;;;;42.73;20.10;;;;;;;;;;6225991;23;20414;-94
2020/12/18 13:05:45;;;;;;;42.33;19.33;;;;;;;;;;6224869;23;20455;-96
2020/12/18 13:08:14;;;;;;;38.63;18.97;;;;;;;;;;6224469;23;20412;-95
2020/12/18 13:10:40;;;;;;;35.63;19.83;;;;;;;;;;6225133;23;20419;-92
2020/12/18 13:13:06;;;;;;;35.00;19.73;;;;;;;;;;6225912;23;20405;-96
2020/12/18 13:15:32;;;;;;;34.10;22.30;;;;;;;;;;6232488;23;20442;-93
2020/12/18 13:18:03;;;;;;;35.93;19.37;;;;;;;;;;6232929;23;20408;-96
2020/12/18 13:20:29;;;;;;;34.80;19.80;;;;;;;;;;6231346;23;20424;-95
2020/12/18 13:22:55;;;;;;;34.83;20.93;;;;;;;;;;6225694;23;20419;-94
2020/12/18 13:25:24;;;;;;;41.53;20.20;;;;;;;;;;6226921;23;20520;-94
2020/12/18 13:27:50;;;;;;;40.40;21.80;;;;;;;;;;6221653;23;20421;-95
2020/12/18 13:30:16;;;;;;;38.53;19.93;;;;;;;;;;6221712;23;20430;-93
2020/12/18 13:32:42;;;;;;;39.23;20.67;;;;;;;;;;6222529;23;20435;-94
2020/12/18 13:35:09;;;;;;;41.10;20.00;;;;;;;;;;6232872;23;20442;-95
2020/12/18 13:37:36;;;;;;;34.63;19.20;;;;;;;;;;6227348;23;20414;-95
2020/12/18 13:40:02;;;;;;;36.00;18.03;;;;;;;;;;6230809;23;20391;-95
2020/12/18 13:42:41;;;;;;;36.30;19.73;;;;;;;;;;6241978;23;20397;-96
2020/12/18 13:45:08;;;;;;;40.03;18.93;;;;;;;;;;6232694;23;20497;-96
2020/12/18 13:47:36;;;;;;;36.07;20.10;;;;;;;;;;6236181;23;20473;-96
2020/12/18 13:50:03;;;;;;;36.03;19.90;;;;;;;;;;6234270;23;20399;-96
2020/12/18 13:52:30;;;;;;;48.87;21.93;;;;;;;;;;6234509;23;20470;-96
2020/12/18 13:54:58;;;;;;;43.00;21.73;;;;;;;;;;6231641;23;20427;-96
2020/12/18 13:57:26;;;;;;;43.70;22.53;;;;;;;;;;6235295;23;20465;-96
2020/12/18 13:59:53;;;;;;;39.53;21.80;;;;;;;;;;6235713;23;20437;-96
2020/12/18 14:02:46;;;;;;;38.10;21.20;;;;;;;;;;6240329;23;20495;-96
2020/12/18 14:08:21;;;;;;;41.70;22.57;;;;;;;;;;6240404;23;20387;-96
2020/12/18 14:10:48;;;;;;;38.70;21.80;;;;;;;;;;6236788;23;20395;-96
2020/12/18 14:13:16;;;;;;;42.23;23.80;;;;;;;;;;6235527;23;20439;-96
2020/12/18 14:15:58;;;;;;;39.40;23.20;;;;;;;;;;6237424;23;20426;-96
2020/12/18 14:18:24;;;;;;;39.80;21.87;;;;;;;;;;6224473;23;20479;-96